sensor_id;sensor_type;location;lat;lon;timestamp;P1;durP1;ratioP1;P2;durP2;ratioP2
54929;SDS011;40833;53.238;6.576;2023-06-22T00:02:13;17.25;;;13.57;;
54929;SDS011;40833;53.238;6.576;2023-06-22T00:04:39;17.95;;;14.30;;
54929;SDS011;40833;53.238;6.576;2023-06-22T00:07:05;17.80;;;14.65;;
54929;SDS011;40833;53.238;6.576;2023-06-22T00:09:31;18.13;;;14.07;;
54929;SDS011;40833;53.238;6.576;2023-06-22T00:11:58;17.60;;;13.85;;
54929;SDS011;40833;53.238;6.576;2023-06-22T00:14:24;14.98;;;13.38;;
54929;SDS011;40833;53.238;6.576;2023-06-22T00:16:49;16.60;;;13.63;;
54929;SDS011;40833;53.238;6.576;2023-06-22T00:19:20;18.40;;;14.73;;
54929;SDS011;40833;53.238;6.576;2023-06-22T00:21:49;23.38;;;14.45;;
54929;SDS011;40833;53.238;6.576;2023-06-22T00:24:21;14.05;;;12.48;;
54929;SDS011;40833;53.238;6.576;2023-06-22T00:26:48;21.38;;;13.80;;
54929;SDS011;40833;53.238;6.576;2023-06-22T00:29:14;16.17;;;12.75;;
54929;SDS011;40833;53.238;6.576;2023-06-22T00:31:40;17.98;;;13.20;;
54929;SDS011;40833;53.238;6.576;2023-06-22T00:34:05;17.20;;;13.40;;
54929;SDS011;40833;53.238;6.576;2023-06-22T00:36:33;22.20;;;14.43;;
54929;SDS011;40833;53.238;6.576;2023-06-22T00:38:59;17.63;;;14.40;;
54929;SDS011;40833;53.238;6.576;2023-06-22T00:41:25;19.08;;;15.38;;
54929;SDS011;40833;53.238;6.576;2023-06-22T00:43:53;21.52;;;15.63;;
54929;SDS011;40833;53.238;6.576;2023-06-22T00:46:20;18.73;;;16.02;;
54929;SDS011;40833;53.238;6.576;2023-06-22T00:48:47;20.27;;;16.30;;
54929;SDS011;40833;53.238;6.576;2023-06-22T00:51:13;21.33;;;16.42;;
54929;SDS011;40833;53.238;6.576;2023-06-22T00:53:39;20.95;;;16.98;;
54929;SDS011;40833;53.238;6.576;2023-06-22T00:56:06;18.77;;;15.50;;
54929;SDS011;40833;53.238;6.576;2023-06-22T00:58:34;21.63;;;15.60;;
54929;SDS011;40833;53.238;6.576;2023-06-22T01:01:01;18.60;;;14.88;;
54929;SDS011;40833;53.238;6.576;2023-06-22T01:03:27;23.13;;;17.60;;
54929;SDS011;40833;53.238;6.576;2023-06-22T01:05:54;24.13;;;18.40;;
54929;SDS011;40833;53.238;6.576;2023-06-22T01:08:29;27.08;;;18.25;;
54929;SDS011;40833;53.238;6.576;2023-06-22T01:11:07;25.45;;;18.27;;
54929;SDS011;40833;53.238;6.576;2023-06-22T01:16:31;23.90;;;17.25;;
54929;SDS011;40833;53.238;6.576;2023-06-22T01:19:00;23.13;;;17.35;;
54929;SDS011;40833;53.238;6.576;2023-06-22T01:21:33;24.70;;;18.52;;
54929;SDS011;40833;53.238;6.576;2023-06-22T01:24:18;29.35;;;20.10;;
54929;SDS011;40833;53.238;6.576;2023-06-22T01:29:49;26.60;;;19.10;;
54929;SDS011;40833;53.238;6.576;2023-06-22T01:32:17;26.45;;;20.02;;
54929;SDS011;40833;53.238;6.576;2023-06-22T01:34:44;24.75;;;19.42;;
54929;SDS011;40833;53.238;6.576;2023-06-22T01:37:11;23.38;;;19.25;;
54929;SDS011;40833;53.238;6.576;2023-06-22T01:39:38;26.77;;;19.33;;
54929;SDS011;40833;53.238;6.576;2023-06-22T01:42:04;25.17;;;17.70;;
54929;SDS011;40833;53.238;6.576;2023-06-22T01:44:31;24.25;;;20.67;;
54929;SDS011;40833;53.238;6.576;2023-06-22T01:46:57;21.52;;;17.77;;
54929;SDS011;40833;53.238;6.576;2023-06-22T01:49:23;20.90;;;17.83;;
54929;SDS011;40833;53.238;6.576;2023-06-22T01:51:49;21.80;;;19.45;;
54929;SDS011;40833;53.238;6.576;2023-06-22T01:54:15;21.00;;;18.80;;
54929;SDS011;40833;53.238;6.576;2023-06-22T01:56:41;21.33;;;19.02;;
54929;SDS011;40833;53.238;6.576;2023-06-22T02:02:01;25.77;;;18.33;;
54929;SDS011;40833;53.238;6.576;2023-06-22T02:04:33;18.30;;;16.33;;
54929;SDS011;40833;53.238;6.576;2023-06-22T02:07:10;19.42;;;17.33;;
54929;SDS011;40833;53.238;6.576;2023-06-22T02:09:39;18.05;;;16.08;;
54929;SDS011;40833;53.238;6.576;2023-06-22T02:12:08;17.65;;;15.75;;
54929;SDS011;40833;53.238;6.576;2023-06-22T02:14:36;20.00;;;16.08;;
54929;SDS011;40833;53.238;6.576;2023-06-22T02:17:02;22.40;;;19.25;;
54929;SDS011;40833;53.238;6.576;2023-06-22T02:23:13;19.63;;;15.90;;
54929;SDS011;40833;53.238;6.576;2023-06-22T02:25:39;19.67;;;14.98;;
54929;SDS011;40833;53.238;6.576;2023-06-22T02:28:04;19.55;;;16.35;;
54929;SDS011;40833;53.238;6.576;2023-06-22T02:30:31;19.23;;;16.05;;
54929;SDS011;40833;53.238;6.576;2023-06-22T02:32:57;18.58;;;16.45;;
54929;SDS011;40833;53.238;6.576;2023-06-22T02:35:26;21.98;;;19.52;;
54929;SDS011;40833;53.238;6.576;2023-06-22T02:38:00;22.75;;;19.83;;
54929;SDS011;40833;53.238;6.576;2023-06-22T02:40:27;22.05;;;19.10;;
54929;SDS011;40833;53.238;6.576;2023-06-22T02:42:54;28.95;;;21.08;;
54929;SDS011;40833;53.238;6.576;2023-06-22T02:45:20;21.13;;;18.83;;
54929;SDS011;40833;53.238;6.576;2023-06-22T02:47:46;23.63;;;18.05;;
54929;SDS011;40833;53.238;6.576;2023-06-22T02:50:13;22.17;;;17.23;;
54929;SDS011;40833;53.238;6.576;2023-06-22T02:52:39;23.63;;;18.38;;
54929;SDS011;40833;53.238;6.576;2023-06-22T02:55:05;23.75;;;17.85;;
54929;SDS011;40833;53.238;6.576;2023-06-22T02:57:32;20.27;;;16.98;;
54929;SDS011;40833;53.238;6.576;2023-06-22T02:59:58;21.50;;;17.42;;
54929;SDS011;40833;53.238;6.576;2023-06-22T03:02:24;18.25;;;16.35;;
54929;SDS011;40833;53.238;6.576;2023-06-22T03:04:51;19.60;;;15.32;;
54929;SDS011;40833;53.238;6.576;2023-06-22T03:07:19;18.02;;;15.10;;
54929;SDS011;40833;53.238;6.576;2023-06-22T03:09:45;19.13;;;15.37;;
54929;SDS011;40833;53.238;6.576;2023-06-22T03:12:11;22.48;;;18.42;;
54929;SDS011;40833;53.238;6.576;2023-06-22T03:14:37;22.20;;;16.67;;
54929;SDS011;40833;53.238;6.576;2023-06-22T03:17:04;19.80;;;14.95;;
54929;SDS011;40833;53.238;6.576;2023-06-22T03:19:30;14.10;;;12.67;;
54929;SDS011;40833;53.238;6.576;2023-06-22T03:21:57;16.23;;;12.87;;
54929;SDS011;40833;53.238;6.576;2023-06-22T03:24:24;13.87;;;12.53;;
54929;SDS011;40833;53.238;6.576;2023-06-22T03:26:50;14.53;;;11.50;;
54929;SDS011;40833;53.238;6.576;2023-06-22T03:29:16;14.40;;;12.83;;
54929;SDS011;40833;53.238;6.576;2023-06-22T03:31:42;20.40;;;14.10;;
54929;SDS011;40833;53.238;6.576;2023-06-22T03:34:07;21.17;;;17.20;;
54929;SDS011;40833;53.238;6.576;2023-06-22T03:36:33;19.03;;;15.83;;
54929;SDS011;40833;53.238;6.576;2023-06-22T03:38:59;20.10;;;16.30;;
54929;SDS011;40833;53.238;6.576;2023-06-22T03:41:24;17.03;;;14.83;;
54929;SDS011;40833;53.238;6.576;2023-06-22T03:43:50;19.63;;;15.00;;
54929;SDS011;40833;53.238;6.576;2023-06-22T03:46:16;14.47;;;12.93;;
54929;SDS011;40833;53.238;6.576;2023-06-22T03:48:42;15.13;;;12.97;;
54929;SDS011;40833;53.238;6.576;2023-06-22T03:51:07;16.10;;;13.73;;
54929;SDS011;40833;53.238;6.576;2023-06-22T03:53:33;18.83;;;13.40;;
54929;SDS011;40833;53.238;6.576;2023-06-22T03:55:59;17.37;;;15.03;;
54929;SDS011;40833;53.238;6.576;2023-06-22T03:58:24;16.17;;;14.47;;
54929;SDS011;40833;53.238;6.576;2023-06-22T04:00:50;19.20;;;15.87;;
54929;SDS011;40833;53.238;6.576;2023-06-22T04:03:17;21.13;;;15.97;;
54929;SDS011;40833;53.238;6.576;2023-06-22T04:05:44;16.23;;;14.57;;
54929;SDS011;40833;53.238;6.576;2023-06-22T04:08:10;20.50;;;16.83;;
54929;SDS011;40833;53.238;6.576;2023-06-22T04:10:36;21.73;;;16.43;;
54929;SDS011;40833;53.238;6.576;2023-06-22T04:13:01;21.43;;;16.90;;
54929;SDS011;40833;53.238;6.576;2023-06-22T04:15:27;19.60;;;14.57;;
54929;SDS011;40833;53.238;6.576;2023-06-22T04:17:54;18.07;;;14.97;;
54929;SDS011;40833;53.238;6.576;2023-06-22T04:20:19;21.87;;;17.03;;
54929;SDS011;40833;53.238;6.576;2023-06-22T04:22:45;20.77;;;16.10;;
54929;SDS011;40833;53.238;6.576;2023-06-22T04:25:11;19.63;;;15.90;;
54929;SDS011;40833;53.238;6.576;2023-06-22T04:27:36;20.63;;;16.60;;
54929;SDS011;40833;53.238;6.576;2023-06-22T04:30:05;20.73;;;17.27;;
54929;SDS011;40833;53.238;6.576;2023-06-22T04:32:32;23.47;;;17.87;;
54929;SDS011;40833;53.238;6.576;2023-06-22T04:34:59;23.83;;;18.60;;
54929;SDS011;40833;53.238;6.576;2023-06-22T04:37:27;22.30;;;17.67;;
54929;SDS011;40833;53.238;6.576;2023-06-22T04:39:53;24.00;;;18.43;;
54929;SDS011;40833;53.238;6.576;2023-06-22T04:42:19;26.70;;;21.23;;
54929;SDS011;40833;53.238;6.576;2023-06-22T04:44:45;26.83;;;21.05;;
54929;SDS011;40833;53.238;6.576;2023-06-22T04:47:11;28.33;;;21.77;;
54929;SDS011;40833;53.238;6.576;2023-06-22T04:49:37;36.63;;;26.53;;
54929;SDS011;40833;53.238;6.576;2023-06-22T04:52:03;32.90;;;23.77;;
54929;SDS011;40833;53.238;6.576;2023-06-22T04:54:31;38.03;;;27.00;;
54929;SDS011;40833;53.238;6.576;2023-06-22T04:56:58;34.07;;;26.23;;
54929;SDS011;40833;53.238;6.576;2023-06-22T04:59:26;41.00;;;28.10;;
54929;SDS011;40833;53.238;6.576;2023-06-22T05:01:58;37.90;;;29.95;;
54929;SDS011;40833;53.238;6.576;2023-06-22T05:04:25;38.27;;;28.17;;
54929;SDS011;40833;53.238;6.576;2023-06-22T05:06:52;35.00;;;28.23;;
54929;SDS011;40833;53.238;6.576;2023-06-22T05:09:19;35.20;;;26.65;;
54929;SDS011;40833;53.238;6.576;2023-06-22T05:11:45;50.35;;;36.30;;
54929;SDS011;40833;53.238;6.576;2023-06-22T05:14:11;41.05;;;32.55;;
54929;SDS011;40833;53.238;6.576;2023-06-22T05:16:38;41.88;;;32.10;;
54929;SDS011;40833;53.238;6.576;2023-06-22T05:19:04;46.58;;;36.08;;
54929;SDS011;40833;53.238;6.576;2023-06-22T05:21:30;45.55;;;33.78;;
54929;SDS011;40833;53.238;6.576;2023-06-22T05:23:57;46.38;;;36.05;;
54929;SDS011;40833;53.238;6.576;2023-06-22T05:26:26;41.90;;;33.58;;
54929;SDS011;40833;53.238;6.576;2023-06-22T05:28:52;41.78;;;33.53;;
54929;SDS011;40833;53.238;6.576;2023-06-22T05:31:18;46.78;;;36.42;;
54929;SDS011;40833;53.238;6.576;2023-06-22T05:33:49;43.33;;;34.63;;
54929;SDS011;40833;53.238;6.576;2023-06-22T05:36:16;43.22;;;34.38;;
54929;SDS011;40833;53.238;6.576;2023-06-22T05:38:44;52.88;;;37.40;;
54929;SDS011;40833;53.238;6.576;2023-06-22T05:41:10;48.17;;;35.70;;
54929;SDS011;40833;53.238;6.576;2023-06-22T05:43:36;47.17;;;34.30;;
54929;SDS011;40833;53.238;6.576;2023-06-22T05:46:03;45.38;;;34.90;;
54929;SDS011;40833;53.238;6.576;2023-06-22T05:48:29;43.97;;;35.45;;
54929;SDS011;40833;53.238;6.576;2023-06-22T05:50:56;44.35;;;34.58;;
54929;SDS011;40833;53.238;6.576;2023-06-22T05:53:21;41.40;;;32.58;;
54929;SDS011;40833;53.238;6.576;2023-06-22T05:55:47;40.58;;;29.98;;
54929;SDS011;40833;53.238;6.576;2023-06-22T05:58:13;35.58;;;29.92;;
54929;SDS011;40833;53.238;6.576;2023-06-22T06:00:39;36.90;;;27.45;;
54929;SDS011;40833;53.238;6.576;2023-06-22T06:03:06;34.20;;;27.38;;
54929;SDS011;40833;53.238;6.576;2023-06-22T06:05:34;32.85;;;26.67;;
54929;SDS011;40833;53.238;6.576;2023-06-22T06:08:00;40.05;;;28.42;;
54929;SDS011;40833;53.238;6.576;2023-06-22T06:10:26;34.83;;;27.10;;
54929;SDS011;40833;53.238;6.576;2023-06-22T06:12:54;35.90;;;27.88;;
54929;SDS011;40833;53.238;6.576;2023-06-22T06:15:20;33.80;;;27.75;;
54929;SDS011;40833;53.238;6.576;2023-06-22T06:17:50;35.15;;;28.85;;
54929;SDS011;40833;53.238;6.576;2023-06-22T06:20:24;39.15;;;31.80;;
54929;SDS011;40833;53.238;6.576;2023-06-22T06:22:52;42.30;;;33.13;;
54929;SDS011;40833;53.238;6.576;2023-06-22T06:25:18;38.28;;;31.83;;
54929;SDS011;40833;53.238;6.576;2023-06-22T06:27:47;38.55;;;29.70;;
54929;SDS011;40833;53.238;6.576;2023-06-22T06:30:13;40.03;;;30.73;;
54929;SDS011;40833;53.238;6.576;2023-06-22T06:32:40;37.00;;;30.35;;
54929;SDS011;40833;53.238;6.576;2023-06-22T06:35:07;39.88;;;30.42;;
54929;SDS011;40833;53.238;6.576;2023-06-22T06:37:38;38.83;;;29.48;;
54929;SDS011;40833;53.238;6.576;2023-06-22T06:40:05;33.78;;;27.50;;
54929;SDS011;40833;53.238;6.576;2023-06-22T06:42:36;34.67;;;28.85;;
54929;SDS011;40833;53.238;6.576;2023-06-22T06:45:04;27.85;;;23.45;;
54929;SDS011;40833;53.238;6.576;2023-06-22T06:47:30;27.05;;;19.80;;
54929;SDS011;40833;53.238;6.576;2023-06-22T06:49:56;21.98;;;19.58;;
54929;SDS011;40833;53.238;6.576;2023-06-22T06:52:22;25.10;;;19.05;;
54929;SDS011;40833;53.238;6.576;2023-06-22T06:54:48;24.40;;;19.63;;
54929;SDS011;40833;53.238;6.576;2023-06-22T06:57:13;19.60;;;17.60;;
54929;SDS011;40833;53.238;6.576;2023-06-22T06:59:40;21.23;;;18.23;;
54929;SDS011;40833;53.238;6.576;2023-06-22T07:02:06;26.85;;;18.67;;
54929;SDS011;40833;53.238;6.576;2023-06-22T07:04:32;17.92;;;16.13;;
54929;SDS011;40833;53.238;6.576;2023-06-22T07:06:58;22.02;;;15.82;;
54929;SDS011;40833;53.238;6.576;2023-06-22T07:09:26;19.33;;;16.20;;
54929;SDS011;40833;53.238;6.576;2023-06-22T07:11:51;25.30;;;18.33;;
54929;SDS011;40833;53.238;6.576;2023-06-22T07:14:17;18.10;;;16.08;;
54929;SDS011;40833;53.238;6.576;2023-06-22T07:16:43;24.52;;;17.88;;
54929;SDS011;40833;53.238;6.576;2023-06-22T07:19:10;20.88;;;16.83;;
54929;SDS011;40833;53.238;6.576;2023-06-22T07:21:37;25.15;;;19.17;;
54929;SDS011;40833;53.238;6.576;2023-06-22T07:24:02;20.67;;;18.48;;
54929;SDS011;40833;53.238;6.576;2023-06-22T07:26:30;21.60;;;17.50;;
54929;SDS011;40833;53.238;6.576;2023-06-22T07:28:56;18.67;;;16.63;;
54929;SDS011;40833;53.238;6.576;2023-06-22T07:31:23;23.25;;;18.13;;
54929;SDS011;40833;53.238;6.576;2023-06-22T07:33:49;21.85;;;16.45;;
54929;SDS011;40833;53.238;6.576;2023-06-22T07:36:16;16.52;;;13.13;;
54929;SDS011;40833;53.238;6.576;2023-06-22T07:38:42;15.48;;;10.25;;
54929;SDS011;40833;53.238;6.576;2023-06-22T07:41:08;13.43;;;8.57;;
54929;SDS011;40833;53.238;6.576;2023-06-22T07:43:34;13.48;;;10.02;;
54929;SDS011;40833;53.238;6.576;2023-06-22T07:46:05;13.85;;;9.27;;
54929;SDS011;40833;53.238;6.576;2023-06-22T07:48:31;11.40;;;8.68;;
54929;SDS011;40833;53.238;6.576;2023-06-22T07:50:57;10.35;;;8.98;;
54929;SDS011;40833;53.238;6.576;2023-06-22T07:53:23;11.60;;;8.57;;
54929;SDS011;40833;53.238;6.576;2023-06-22T07:55:49;14.45;;;11.43;;
54929;SDS011;40833;53.238;6.576;2023-06-22T07:58:15;15.65;;;10.82;;
54929;SDS011;40833;53.238;6.576;2023-06-22T08:00:41;15.55;;;10.55;;
54929;SDS011;40833;53.238;6.576;2023-06-22T08:03:07;13.60;;;9.52;;
54929;SDS011;40833;53.238;6.576;2023-06-22T08:05:32;11.93;;;9.10;;
54929;SDS011;40833;53.238;6.576;2023-06-22T08:07:58;8.63;;;7.82;;
54929;SDS011;40833;53.238;6.576;2023-06-22T08:10:24;13.95;;;8.20;;
54929;SDS011;40833;53.238;6.576;2023-06-22T08:12:50;8.07;;;6.50;;
54929;SDS011;40833;53.238;6.576;2023-06-22T08:15:17;10.15;;;7.60;;
54929;SDS011;40833;53.238;6.576;2023-06-22T08:17:44;10.20;;;8.10;;
54929;SDS011;40833;53.238;6.576;2023-06-22T08:20:11;8.70;;;7.65;;
54929;SDS011;40833;53.238;6.576;2023-06-22T08:22:37;9.20;;;7.93;;
54929;SDS011;40833;53.238;6.576;2023-06-22T08:25:03;6.22;;;5.63;;
54929;SDS011;40833;53.238;6.576;2023-06-22T08:29:46;10.02;;;6.55;;
54929;SDS011;40833;53.238;6.576;2023-06-22T08:32:12;9.70;;;7.25;;
54929;SDS011;40833;53.238;6.576;2023-06-22T08:34:38;8.70;;;7.60;;
54929;SDS011;40833;53.238;6.576;2023-06-22T08:37:07;11.65;;;8.57;;
54929;SDS011;40833;53.238;6.576;2023-06-22T08:39:34;9.27;;;8.10;;
54929;SDS011;40833;53.238;6.576;2023-06-22T08:42:00;8.35;;;7.35;;
54929;SDS011;40833;53.238;6.576;2023-06-22T08:44:25;9.70;;;7.20;;
54929;SDS011;40833;53.238;6.576;2023-06-22T08:46:51;8.82;;;7.22;;
54929;SDS011;40833;53.238;6.576;2023-06-22T08:49:17;10.52;;;8.43;;
54929;SDS011;40833;53.238;6.576;2023-06-22T09:00:18;9.43;;;5.97;;
54929;SDS011;40833;53.238;6.576;2023-06-22T09:02:45;8.52;;;6.00;;
54929;SDS011;40833;53.238;6.576;2023-06-22T09:05:11;6.85;;;5.68;;
54929;SDS011;40833;53.238;6.576;2023-06-22T09:10:16;5.85;;;5.25;;
54929;SDS011;40833;53.238;6.576;2023-06-22T09:12:42;6.85;;;4.78;;
54929;SDS011;40833;53.238;6.576;2023-06-22T09:15:08;6.38;;;4.38;;
54929;SDS011;40833;53.238;6.576;2023-06-22T09:27:03;7.28;;;4.82;;
54929;SDS011;40833;53.238;6.576;2023-06-22T09:29:29;5.70;;;5.20;;
54929;SDS011;40833;53.238;6.576;2023-06-22T09:33:40;8.35;;;6.25;;
54929;SDS011;40833;53.238;6.576;2023-06-22T09:40:20;6.30;;;5.63;;
54929;SDS011;40833;53.238;6.576;2023-06-22T09:42:46;7.15;;;6.28;;
54929;SDS011;40833;53.238;6.576;2023-06-22T09:45:12;8.20;;;6.10;;
54929;SDS011;40833;53.238;6.576;2023-06-22T09:47:38;5.18;;;4.68;;
54929;SDS011;40833;53.238;6.576;2023-06-22T09:50:04;10.70;;;5.40;;
54929;SDS011;40833;53.238;6.576;2023-06-22T09:52:31;6.82;;;5.03;;
54929;SDS011;40833;53.238;6.576;2023-06-22T09:54:57;9.52;;;6.18;;
54929;SDS011;40833;53.238;6.576;2023-06-22T09:57:23;8.85;;;6.90;;
54929;SDS011;40833;53.238;6.576;2023-06-22T09:59:48;7.40;;;6.30;;
54929;SDS011;40833;53.238;6.576;2023-06-22T10:02:14;9.55;;;5.38;;
54929;SDS011;40833;53.238;6.576;2023-06-22T10:04:41;6.03;;;5.50;;
54929;SDS011;40833;53.238;6.576;2023-06-22T10:07:07;8.57;;;5.45;;
54929;SDS011;40833;53.238;6.576;2023-06-22T10:09:33;7.18;;;5.95;;
54929;SDS011;40833;53.238;6.576;2023-06-22T10:11:59;8.73;;;6.53;;
54929;SDS011;40833;53.238;6.576;2023-06-22T10:14:25;8.63;;;5.63;;
54929;SDS011;40833;53.238;6.576;2023-06-22T10:16:54;5.50;;;5.00;;
54929;SDS011;40833;53.238;6.576;2023-06-22T10:28:12;8.82;;;6.50;;
54929;SDS011;40833;53.238;6.576;2023-06-22T10:30:39;4.85;;;4.38;;
54929;SDS011;40833;53.238;6.576;2023-06-22T10:33:11;7.75;;;6.03;;
54929;SDS011;40833;53.238;6.576;2023-06-22T10:35:37;7.95;;;5.63;;
54929;SDS011;40833;53.238;6.576;2023-06-22T10:38:03;7.18;;;5.72;;
54929;SDS011;40833;53.238;6.576;2023-06-22T10:40:30;7.28;;;6.57;;
54929;SDS011;40833;53.238;6.576;2023-06-22T10:42:55;8.23;;;5.70;;
54929;SDS011;40833;53.238;6.576;2023-06-22T10:45:22;7.80;;;5.35;;
54929;SDS011;40833;53.238;6.576;2023-06-22T10:47:47;10.20;;;5.88;;
54929;SDS011;40833;53.238;6.576;2023-06-22T10:50:13;6.90;;;5.68;;
54929;SDS011;40833;53.238;6.576;2023-06-22T10:52:40;8.40;;;5.22;;
54929;SDS011;40833;53.238;6.576;2023-06-22T10:57:01;5.47;;;5.03;;
54929;SDS011;40833;53.238;6.576;2023-06-22T10:59:27;8.40;;;4.95;;
54929;SDS011;40833;53.238;6.576;2023-06-22T11:05:52;7.82;;;5.82;;
54929;SDS011;40833;53.238;6.576;2023-06-22T11:08:18;11.73;;;4.95;;
54929;SDS011;40833;53.238;6.576;2023-06-22T11:10:44;6.70;;;4.40;;
54929;SDS011;40833;53.238;6.576;2023-06-22T11:13:10;7.30;;;5.88;;
54929;SDS011;40833;53.238;6.576;2023-06-22T11:15:36;9.20;;;6.60;;
54929;SDS011;40833;53.238;6.576;2023-06-22T11:18:01;6.43;;;5.82;;
54929;SDS011;40833;53.238;6.576;2023-06-22T11:20:27;8.05;;;5.82;;
54929;SDS011;40833;53.238;6.576;2023-06-22T11:28:02;8.95;;;6.45;;
54929;SDS011;40833;53.238;6.576;2023-06-22T11:30:29;6.97;;;5.30;;
54929;SDS011;40833;53.238;6.576;2023-06-22T11:32:58;5.78;;;5.22;;
54929;SDS011;40833;53.238;6.576;2023-06-22T11:35:25;6.40;;;5.78;;
54929;SDS011;40833;53.238;6.576;2023-06-22T11:37:51;6.00;;;4.43;;
54929;SDS011;40833;53.238;6.576;2023-06-22T11:40:16;9.23;;;5.88;;
54929;SDS011;40833;53.238;6.576;2023-06-22T11:42:42;9.05;;;6.50;;
54929;SDS011;40833;53.238;6.576;2023-06-22T11:45:08;7.50;;;5.70;;
54929;SDS011;40833;53.238;6.576;2023-06-22T11:47:34;10.65;;;5.43;;
54929;SDS011;40833;53.238;6.576;2023-06-22T11:50:01;7.65;;;5.18;;
54929;SDS011;40833;53.238;6.576;2023-06-22T11:59:21;8.70;;;4.45;;
54929;SDS011;40833;53.238;6.576;2023-06-22T12:01:47;7.80;;;3.92;;
54929;SDS011;40833;53.238;6.576;2023-06-22T12:04:14;9.27;;;4.82;;
54929;SDS011;40833;53.238;6.576;2023-06-22T12:06:39;6.53;;;4.43;;
54929;SDS011;40833;53.238;6.576;2023-06-22T12:09:07;7.32;;;4.45;;
54929;SDS011;40833;53.238;6.576;2023-06-22T12:11:33;4.38;;;4.00;;
54929;SDS011;40833;53.238;6.576;2023-06-22T12:24:35;5.25;;;4.55;;
54929;SDS011;40833;53.238;6.576;2023-06-22T12:27:01;6.53;;;3.80;;
54929;SDS011;40833;53.238;6.576;2023-06-22T12:29:28;7.85;;;3.90;;
54929;SDS011;40833;53.238;6.576;2023-06-22T12:31:54;7.28;;;3.60;;
54929;SDS011;40833;53.238;6.576;2023-06-22T12:34:19;4.00;;;3.10;;
54929;SDS011;40833;53.238;6.576;2023-06-22T12:36:45;5.93;;;3.45;;
54929;SDS011;40833;53.238;6.576;2023-06-22T12:39:13;4.50;;;3.95;;
54929;SDS011;40833;53.238;6.576;2023-06-22T12:41:39;4.88;;;3.83;;
54929;SDS011;40833;53.238;6.576;2023-06-22T12:44:04;4.05;;;2.90;;
54929;SDS011;40833;53.238;6.576;2023-06-22T12:46:30;5.38;;;3.08;;
54929;SDS011;40833;53.238;6.576;2023-06-22T12:49:02;3.40;;;3.10;;
54929;SDS011;40833;53.238;6.576;2023-06-22T12:51:29;5.85;;;3.50;;
54929;SDS011;40833;53.238;6.576;2023-06-22T12:53:55;3.50;;;3.20;;
54929;SDS011;40833;53.238;6.576;2023-06-22T12:56:21;7.45;;;3.40;;
54929;SDS011;40833;53.238;6.576;2023-06-22T12:58:47;5.82;;;3.08;;
54929;SDS011;40833;53.238;6.576;2023-06-22T13:04:34;4.50;;;2.40;;
54929;SDS011;40833;53.238;6.576;2023-06-22T13:06:59;2.72;;;2.53;;
54929;SDS011;40833;53.238;6.576;2023-06-22T13:09:25;3.22;;;2.35;;
54929;SDS011;40833;53.238;6.576;2023-06-22T13:11:51;4.00;;;2.38;;
54929;SDS011;40833;53.238;6.576;2023-06-22T13:14:17;2.40;;;2.20;;
54929;SDS011;40833;53.238;6.576;2023-06-22T13:16:43;4.50;;;2.13;;
54929;SDS011;40833;53.238;6.576;2023-06-22T13:19:09;2.20;;;1.95;;
54929;SDS011;40833;53.238;6.576;2023-06-22T13:21:35;4.95;;;1.90;;
54929;SDS011;40833;53.238;6.576;2023-06-22T13:24:00;3.38;;;2.03;;
54929;SDS011;40833;53.238;6.576;2023-06-22T13:26:26;2.17;;;2.00;;
54929;SDS011;40833;53.238;6.576;2023-06-22T13:28:53;2.58;;;1.75;;
54929;SDS011;40833;53.238;6.576;2023-06-22T13:31:19;1.90;;;1.80;;
54929;SDS011;40833;53.238;6.576;2023-06-22T13:33:45;1.88;;;1.65;;
54929;SDS011;40833;53.238;6.576;2023-06-22T13:36:13;3.78;;;1.70;;
54929;SDS011;40833;53.238;6.576;2023-06-22T13:38:38;5.15;;;2.00;;
54929;SDS011;40833;53.238;6.576;2023-06-22T13:41:05;1.70;;;1.60;;
54929;SDS011;40833;53.238;6.576;2023-06-22T13:43:30;1.90;;;1.80;;
54929;SDS011;40833;53.238;6.576;2023-06-22T13:45:57;4.60;;;2.13;;
54929;SDS011;40833;53.238;6.576;2023-06-22T13:48:22;4.45;;;1.95;;
54929;SDS011;40833;53.238;6.576;2023-06-22T13:50:51;2.78;;;1.90;;
54929;SDS011;40833;53.238;6.576;2023-06-22T13:53:17;1.67;;;1.30;;
54929;SDS011;40833;53.238;6.576;2023-06-22T13:55:42;4.57;;;1.60;;
54929;SDS011;40833;53.238;6.576;2023-06-22T13:58:08;1.77;;;1.38;;
54929;SDS011;40833;53.238;6.576;2023-06-22T14:00:34;2.35;;;1.38;;
54929;SDS011;40833;53.238;6.576;2023-06-22T14:02:59;4.25;;;1.50;;
54929;SDS011;40833;53.238;6.576;2023-06-22T14:05:25;3.00;;;1.85;;
54929;SDS011;40833;53.238;6.576;2023-06-22T14:07:51;1.63;;;1.52;;
54929;SDS011;40833;53.238;6.576;2023-06-22T14:10:17;3.90;;;1.92;;
54929;SDS011;40833;53.238;6.576;2023-06-22T14:12:42;4.20;;;1.50;;
54929;SDS011;40833;53.238;6.576;2023-06-22T14:15:08;3.47;;;1.50;;
54929;SDS011;40833;53.238;6.576;2023-06-22T14:17:34;1.40;;;1.10;;
54929;SDS011;40833;53.238;6.576;2023-06-22T14:20:00;0.93;;;0.77;;
54929;SDS011;40833;53.238;6.576;2023-06-22T14:22:25;2.13;;;1.23;;
54929;SDS011;40833;53.238;6.576;2023-06-22T14:27:28;2.97;;;1.05;;
54929;SDS011;40833;53.238;6.576;2023-06-22T14:29:54;4.47;;;0.75;;
54929;SDS011;40833;53.238;6.576;2023-06-22T14:32:20;1.73;;;0.90;;
54929;SDS011;40833;53.238;6.576;2023-06-22T14:34:46;1.50;;;1.15;;
54929;SDS011;40833;53.238;6.576;2023-06-22T14:37:11;2.80;;;0.70;;
54929;SDS011;40833;53.238;6.576;2023-06-22T14:39:39;2.17;;;0.88;;
54929;SDS011;40833;53.238;6.576;2023-06-22T14:42:05;3.13;;;0.73;;
54929;SDS011;40833;53.238;6.576;2023-06-22T14:44:31;2.33;;;0.70;;
54929;SDS011;40833;53.238;6.576;2023-06-22T14:46:57;2.50;;;0.85;;
54929;SDS011;40833;53.238;6.576;2023-06-22T14:49:23;1.25;;;0.70;;
54929;SDS011;40833;53.238;6.576;2023-06-22T14:51:48;1.15;;;0.80;;
54929;SDS011;40833;53.238;6.576;2023-06-22T14:54:14;1.15;;;0.43;;
54929;SDS011;40833;53.238;6.576;2023-06-22T14:56:40;1.77;;;0.80;;
54929;SDS011;40833;53.238;6.576;2023-06-22T14:59:05;1.17;;;0.50;;
54929;SDS011;40833;53.238;6.576;2023-06-22T15:01:31;0.88;;;0.60;;
54929;SDS011;40833;53.238;6.576;2023-06-22T15:03:57;1.33;;;0.70;;
54929;SDS011;40833;53.238;6.576;2023-06-22T15:06:23;4.05;;;0.50;;
54929;SDS011;40833;53.238;6.576;2023-06-22T15:08:48;1.88;;;0.80;;
54929;SDS011;40833;53.238;6.576;2023-06-22T15:11:14;3.53;;;0.70;;
54929;SDS011;40833;53.238;6.576;2023-06-22T15:13:40;3.70;;;0.93;;
54929;SDS011;40833;53.238;6.576;2023-06-22T15:16:06;0.75;;;0.40;;
54929;SDS011;40833;53.238;6.576;2023-06-22T15:18:33;0.85;;;0.68;;
54929;SDS011;40833;53.238;6.576;2023-06-22T15:21:00;1.50;;;0.70;;
54929;SDS011;40833;53.238;6.576;2023-06-22T15:23:27;1.90;;;0.70;;
54929;SDS011;40833;53.238;6.576;2023-06-22T15:25:54;1.27;;;0.88;;
54929;SDS011;40833;53.238;6.576;2023-06-22T15:28:20;2.97;;;0.80;;
54929;SDS011;40833;53.238;6.576;2023-06-22T15:30:46;1.77;;;0.50;;
54929;SDS011;40833;53.238;6.576;2023-06-22T15:33:13;1.08;;;0.55;;
54929;SDS011;40833;53.238;6.576;2023-06-22T15:35:39;0.85;;;0.47;;
54929;SDS011;40833;53.238;6.576;2023-06-22T15:38:05;2.13;;;0.45;;
54929;SDS011;40833;53.238;6.576;2023-06-22T15:40:30;1.00;;;0.52;;
54929;SDS011;40833;53.238;6.576;2023-06-22T15:42:56;1.50;;;0.60;;
54929;SDS011;40833;53.238;6.576;2023-06-22T15:45:22;2.22;;;0.75;;
54929;SDS011;40833;53.238;6.576;2023-06-22T15:53:24;2.50;;;0.77;;
54929;SDS011;40833;53.238;6.576;2023-06-22T15:55:50;0.70;;;0.50;;
54929;SDS011;40833;53.238;6.576;2023-06-22T15:58:17;1.48;;;0.32;;
54929;SDS011;40833;53.238;6.576;2023-06-22T16:00:43;0.40;;;0.40;;